地図

経路データ

SID SEASON NUMBER BASIN SUBBASIN NAME ISO_TIME NATURE LAT LON WMO_WIND WMO_PRES WMO_AGENCY TRACK_TYPE DIST2LAND LANDFALL IFLAG USA_AGENCY USA_ATCF_ID USA_LAT USA_LON USA_RECORD USA_STATUS USA_WIND USA_PRES USA_SSHS USA_R34_NE USA_R34_SE USA_R34_SW USA_R34_NW USA_R50_NE USA_R50_SE USA_R50_SW USA_R50_NW USA_R64_NE USA_R64_SE USA_R64_SW USA_R64_NW USA_POCI USA_ROCI USA_RMW USA_EYE TOKYO_LAT TOKYO_LON TOKYO_GRADE TOKYO_WIND TOKYO_PRES TOKYO_R50_DIR TOKYO_R50_LONG TOKYO_R50_SHORT TOKYO_R30_DIR TOKYO_R30_LONG TOKYO_R30_SHORT TOKYO_LAND CMA_LAT CMA_LON CMA_CAT CMA_WIND CMA_PRES HKO_LAT HKO_LON HKO_CAT HKO_WIND HKO_PRES NEWDELHI_LAT NEWDELHI_LON NEWDELHI_GRADE NEWDELHI_WIND NEWDELHI_PRES NEWDELHI_CI NEWDELHI_DP NEWDELHI_POCI REUNION_LAT REUNION_LON REUNION_TYPE REUNION_WIND REUNION_PRES REUNION_TNUM REUNION_CI REUNION_RMW REUNION_R34_NE REUNION_R34_SE REUNION_R34_SW REUNION_R34_NW REUNION_R50_NE REUNION_R50_SE REUNION_R50_SW REUNION_R50_NW REUNION_R64_NE REUNION_R64_SE REUNION_R64_SW REUNION_R64_NW BOM_LAT BOM_LON BOM_TYPE BOM_WIND BOM_PRES BOM_TNUM BOM_CI BOM_RMW BOM_R34_NE BOM_R34_SE BOM_R34_SW BOM_R34_NW BOM_R50_NE BOM_R50_SE BOM_R50_SW BOM_R50_NW BOM_R64_NE BOM_R64_SE BOM_R64_SW BOM_R64_NW BOM_ROCI BOM_POCI BOM_EYE BOM_POS_METHOD BOM_PRES_METHOD NADI_LAT NADI_LON NADI_CAT NADI_WIND NADI_PRES WELLINGTON_LAT WELLINGTON_LON WELLINGTON_WIND WELLINGTON_PRES DS824_LAT DS824_LON DS824_STAGE DS824_WIND DS824_PRES TD9636_LAT TD9636_LON TD9636_STAGE TD9636_WIND TD9636_PRES TD9635_LAT TD9635_LON TD9635_WIND TD9635_PRES TD9635_ROCI NEUMANN_LAT NEUMANN_LON NEUMANN_CLASS NEUMANN_WIND NEUMANN_PRES MLC_LAT MLC_LON MLC_CLASS MLC_WIND MLC_PRES USA_GUST BOM_GUST BOM_GUST_PER REUNION_GUST REUNION_GUST_PER USA_SEAHGT USA_SEARAD_NE USA_SEARAD_SE USA_SEARAD_SW USA_SEARAD_NW STORM_SPEED STORM_DIR
2020345S13183 2021 115 SP MM NOT_NAMED 2020-12-09 18:00:00 TS -12.8000 183.400 main 419 419 O_____________ jtwc_sh SH042021 -12.8000 -176.600 TD 25 1004 -1 1007 100 30 19 286
2020345S13183 2021 115 SP MM NOT_NAMED 2020-12-09 21:00:00 TS -12.5360 182.487 main 500 472 P_____________ SH042021 -12.5360 -177.513 TD 22 1005 -1 1007 100 30 16 284
2020345S13183 2021 115 SP MM NOT_NAMED 2020-12-10 00:00:00 NR -12.4000 181.800 main 472 448 O_____________ jtwc_sh SH042021 -12.4000 -178.200 DB 20 1007 -3 1007 100 30 10 274
2020345S13183 2021 115 SP MM NOT_NAMED 2020-12-10 03:00:00 NR -12.4696 181.475 main 448 430 P_____________ SH042021 -12.4696 -178.525 DB 25 1005 -3 1007 100 30 5 248
2020345S13183 2021 115 SP MM NOT_NAMED 2020-12-10 06:00:00 TS -12.6000 181.300 main 430 420 O_____________ jtwc_sh SH042021 -12.6000 -178.700 TD 30 1003 -1 1007 100 30 5 252
2020345S13183 2021 115 SP MM NOT_NAMED 2020-12-10 09:00:00 TS -12.6225 181.000 main 420 412 P_____________ SH042021 -12.6225 -179.000 TD 30 1002 -1 1007 115 32 6 270
2020345S13183 2021 115 SP MM NOT_NAMED 2020-12-10 12:00:00 TS -12.6000 180.700 main 412 408 O_____________ jtwc_sh SH042021 -12.6000 -179.300 TD 30 1002 -1 1007 130 35 5 277
2020345S13183 2021 115 SP MM NOT_NAMED 2020-12-10 15:00:00 TS -12.5574 180.450 main 406 406 P_____________ SH042021 -12.5574 -179.550 TD 30 1002 -1 1007 115 35 5 282
2020345S13183 2021 115 SP MM NOT_NAMED 2020-12-10 18:00:00 TS -12.5000 180.200 main 415 414 O_____________ jtwc_sh SH042021 -12.5000 -179.800 TD 30 1002 -1 1007 100 35 6 286
2020345S13183 2021 115 SP MM NOT_NAMED 2020-12-10 21:00:00 TS -12.4050 179.907 main 425 425 P_____________ SH042021 -12.4050 179.907 TD 32 1001 -1 1006 100 30 6 280
2020345S13183 2021 115 SP MM NOT_NAMED 2020-12-11 00:00:00 TS -12.4000 179.600 main 425 405 O_____________ jtwc_sh SH042021 -12.4000 179.600 TS 35 1001 0 60 55 1006 100 25 7 250
2020345S13183 2021 115 SP MM NOT_NAMED 2020-12-11 03:00:00 TS -12.6275 179.278 main 406 379 P_____________ SH042021 -12.6275 179.278 TS 35 1000 0 47 1006 100 25 8 230
2020345S13183 2021 115 SP MM NOT_NAMED 2020-12-11 06:00:00 TS -12.9000 179.000 main 379 371 O_____________ jtwc_sh SH042021 -12.9000 179.000 TS 35 1000 0 140 35 1006 100 25 5 230
2020345S13183 2021 115 SP MM NOT_NAMED 2020-12-11 09:00:00 TS -12.9548 178.872 main 371 366 P_____________ SH042021 -12.9548 178.872 TS 35 999 0 150 52 1006 100 25 4 236
2020345S13183 2021 115 SP MM NOT_NAMED 2020-12-11 12:00:00 TS -13.1000 178.700 main 366 324 O_____________ jtwc_sh SH042021 -13.1000 178.700 TS 35 999 0 160 70 1006 100 25 8 218
2020345S13183 2021 115 SP MM NOT_NAMED 2020-12-11 15:00:00 TS -13.6122 178.348 main 328 287 P_____________ SH042021 -13.6122 178.348 TS 35 1000 0 125 77 1005 95 25 14 218
2020345S13183 2021 115 SP MM NOT_NAMED 2020-12-11 18:00:00 TS -14.2000 177.800 main 287 277 O_____________ jtwc_sh SH042021 -14.2000 177.800 TS 35 1001 0 90 85 55 30 1005 90 25 16 233
2020345S13183 2021 115 SP MM NOT_NAMED 2020-12-11 21:00:00 TS -14.5652 177.052 main 278 278 P_____________ SH042021 -14.5652 177.052 TS 37 1000 0 65 62 42 1005 85 25 17 246
2020345S13183 2021 115 SP MM NOT_NAMED 2020-12-12 00:00:00 TS -14.9000 176.200 main 318 317 O_____________ jtwc_sh SH042021 -14.9000 176.200 TS 40 1000 0 40 40 30 1005 80 25 18 243
2020345S13183 2021 115 SP MM NOT_NAMED 2020-12-12 03:00:00 TS -15.3949 175.378 main 324 324 P_____________ SH042021 -15.3949 175.378 TS 37 1000 0 40 40 40 1004 112 25 18 240
2020345S13183 2021 115 SP MM NOT_NAMED 2020-12-12 06:00:00 TS -15.8000 174.600 main 359 359 O_____________ jtwc_sh SH042021 -15.8000 174.600 TS 35 1000 0 40 40 50 170 1004 145 25 15 248
2020345S13183 2021 115 SP MM NOT_NAMED 2020-12-12 09:00:00 TS -15.9468 173.957 main 409 409 P_____________ SH042021 -15.9468 173.957 TS 32 1001 -1 1004 167 25 13 265
2020345S13183 2021 115 SP MM NOT_NAMED 2020-12-12 12:00:00 TS -15.9000 173.300 main 476 476 O_____________ jtwc_sh SH042021 -15.9000 173.300 TD 30 1002 -1 1005 190 25 14 279
2020345S13183 2021 115 SP MM NOT_NAMED 2020-12-12 15:00:00 TS -15.7311 172.497 main 507 426 P_____________ SH042021 -15.7311 172.497 TD 27 1003 -1 1005 190 25 17 284
2020345S13183 2021 115 SP MM NOT_NAMED 2020-12-12 18:00:00 TS -15.5000 171.600 main 416 O_____________ jtwc_sh SH042021 -15.5000 171.600 TD 25 1004 -1 1005 190 25 18 285

デジタル台風データ・検索

IBTrACS Databaseについて

本データベースは、米国NOAAが公開する1842年以降の世界の熱帯低気圧のベストトラックデータアーカイブInternational Best Track Archive for Climate Stewardship (IBTrACS)を、ウェブで閲覧しやすい形式に変換したものです。

最終更新日:2022-11-16